Time;durP1;ratioP1;P1;durP2;ratioP2;P2;SDS_P1;SDS_P2;PMS_P1;PMS_P2;Temp;Humidity;BMP_temperature;BMP_pressure;BME280_temperature;BME280_humidity;BME280_pressure;Samples;Min_cycle;Max_cycle;Signal;HPM_P1;HPM_P2
2022/12/26 00:00:42;;;;;;;5.03;2.67;;;15.80;70.40;;;;;;10329645;28;20113;-56
2022/12/26 00:05:42;;;;;;;4.32;3.00;;;15.90;70.20;;;;;;10327691;28;20119;-54
2022/12/26 00:10:43;;;;;;;4.47;2.90;;;15.90;70.10;;;;;;10366929;28;20512;-56
2022/12/26 00:15:44;;;;;;;4.88;3.22;;;15.90;70.20;;;;;;10368299;28;20018;-54
2022/12/26 00:20:45;;;;;;;4.90;3.45;;;15.80;70.30;;;;;;10356157;28;20481;-56
2022/12/26 00:25:45;;;;;;;3.58;2.80;;;15.90;70.30;;;;;;10369305;28;20793;-56
2022/12/26 00:30:46;;;;;;;5.43;3.63;;;15.90;70.10;;;;;;10337382;28;20040;-56
2022/12/26 00:35:47;;;;;;;5.60;3.75;;;15.90;70.00;;;;;;10347622;28;20109;-57
2022/12/26 00:40:47;;;;;;;4.85;3.40;;;16.00;70.00;;;;;;10361115;28;20022;-56
2022/12/26 00:45:48;;;;;;;5.10;3.45;;;15.90;70.10;;;;;;10366852;28;20060;-56
2022/12/26 00:50:49;;;;;;;5.68;4.15;;;15.90;70.00;;;;;;10350735;28;20021;-56
2022/12/26 00:55:50;;;;;;;6.97;3.90;;;16.00;69.90;;;;;;10358663;28;20726;-55
2022/12/26 01:00:51;;;;;;;5.53;3.47;;;15.90;69.90;;;;;;10339468;28;20473;-55
2022/12/26 01:05:52;;;;;;;4.95;3.42;;;16.00;70.00;;;;;;10352108;28;20022;-55
2022/12/26 01:10:52;;;;;;;5.60;3.33;;;16.00;69.80;;;;;;10338459;28;20042;-56
2022/12/26 01:15:53;;;;;;;6.60;3.90;;;16.00;69.80;;;;;;10339602;28;20478;-56
2022/12/26 01:21:06;;;;;;;4.55;3.10;;;16.00;69.90;;;;;;10364848;28;20069;-57
2022/12/26 01:26:07;;;;;;;6.50;4.03;;;16.00;69.90;;;;;;10365569;28;20046;-55
2022/12/26 01:31:08;;;;;;;5.00;3.55;;;16.00;69.70;;;;;;10333288;28;20102;-56
2022/12/26 01:36:09;;;;;;;5.78;3.72;;;16.00;69.70;;;;;;10353668;28;20022;-56
2022/12/26 01:41:16;;;;;;;4.72;3.10;;;16.00;69.80;;;;;;10344937;28;20057;-57
2022/12/26 01:46:30;;;;;;;7.03;4.70;;;15.90;70.00;;;;;;10335377;28;20105;-56
2022/12/26 01:51:37;;;;;;;4.85;3.47;;;16.00;69.80;;;;;;10351522;28;20053;-55
2022/12/26 01:56:42;;;;;;;4.95;3.92;;;16.00;69.70;;;;;;10336181;28;20026;-56
2022/12/26 02:01:44;;;;;;;3.53;2.75;;;16.00;69.60;;;;;;10307565;28;20084;-56
2022/12/26 02:06:44;;;;;;;4.43;3.00;;;16.00;69.60;;;;;;10323544;28;20601;-56
2022/12/26 02:11:55;;;;;;;6.03;4.32;;;15.90;69.80;;;;;;10323596;28;20057;-57
2022/12/26 02:16:56;;;;;;;4.88;3.17;;;15.90;70.00;;;;;;10346033;28;20018;-55
2022/12/26 02:22:22;;;;;;;4.78;3.28;;;15.90;70.10;;;;;;10350840;28;20485;-56
2022/12/26 02:27:53;;;;;;;4.97;3.50;;;15.90;70.10;;;;;;10363697;28;20501;-57
2022/12/26 02:33:31;;;;;;;4.60;3.05;;;15.90;70.00;;;;;;10362962;28;20025;-56
2022/12/26 02:39:12;;;;;;;4.35;3.63;;;15.90;70.00;;;;;;10323444;28;20480;-54
2022/12/26 03:13:12;;;;;;;4.93;4.15;;;15.90;69.70;;;;;;10363278;28;20050;-57
2022/12/26 03:18:13;;;;;;;;;;;15.90;69.80;;;;;;10363444;28;20018;-57
2022/12/26 03:23:17;;;;;;;4.63;3.65;;;15.90;70.00;;;;;;10346325;28;19912;-57
2022/12/26 03:28:18;;;;;;;3.17;2.58;;;15.80;70.20;;;;;;10339349;28;20034;-56
2022/12/26 03:39:12;;;;;;;4.00;2.83;;;16.00;69.60;;;;;;10363194;28;20080;-55
2022/12/26 04:44:50;;;;;;;4.65;3.38;;;15.90;69.70;;;;;;10348052;28;20489;-62
2022/12/26 04:55:30;;;;;;;4.03;2.83;;;15.90;70.30;;;;;;10267586;28;20014;-63
2022/12/26 05:00:31;;;;;;;3.72;2.80;;;15.90;69.60;;;;;;10331669;28;20014;-62
2022/12/26 05:10:58;;;;;;;3.55;2.60;;;15.80;69.80;;;;;;10350275;28;20058;-62
2022/12/26 05:31:56;;;;;;;3.25;2.45;;;15.90;69.20;;;;;;10352688;28;20054;-62
2022/12/26 05:36:58;;;;;;;4.03;2.78;;;15.90;69.40;;;;;;10351930;28;20042;-62
2022/12/26 05:41:58;;;;;;;4.22;2.65;;;15.80;69.60;;;;;;10342189;28;20233;-61
2022/12/26 05:46:59;;;;;;;3.42;2.60;;;15.90;69.50;;;;;;10344396;28;20101;-62
2022/12/26 05:52:00;;;;;;;4.05;3.08;;;15.90;69.30;;;;;;10364488;28;20101;-62
2022/12/26 05:57:02;;;;;;;4.07;2.80;;;15.90;69.40;;;;;;10331700;28;20786;-60
2022/12/26 06:02:03;;;;;;;3.10;2.38;;;15.90;69.60;;;;;;10343663;28;20056;-62
2022/12/26 06:07:04;;;;;;;3.00;2.05;;;15.80;69.50;;;;;;10335102;28;20196;-62
2022/12/26 06:12:04;;;;;;;3.28;2.42;;;15.90;69.30;;;;;;10361554;28;20133;-62
2022/12/26 06:17:05;;;;;;;3.55;2.53;;;15.90;69.60;;;;;;10364544;28;20034;-61
2022/12/26 06:22:06;;;;;;;2.80;2.10;;;15.90;69.00;;;;;;10350159;28;20602;-62
2022/12/26 06:27:06;;;;;;;3.60;2.65;;;15.90;69.20;;;;;;10363219;28;20167;-60
2022/12/26 06:32:07;;;;;;;2.90;2.22;;;15.90;69.20;;;;;;10348206;28;20448;-59
2022/12/26 06:37:08;;;;;;;6.30;2.33;;;15.90;69.10;;;;;;10355890;28;20148;-58
2022/12/26 06:42:08;;;;;;;11.73;3.17;;;16.00;69.70;;;;;;10376070;28;20048;-63
2022/12/26 06:47:09;;;;;;;7.90;2.10;;;16.00;69.80;;;;;;10359484;28;20057;-62
2022/12/26 06:52:10;;;;;;;5.47;2.85;;;16.10;69.90;;;;;;10318984;28;20138;-60
2022/12/26 06:57:11;;;;;;;6.70;2.58;;;16.20;69.80;;;;;;10302532;28;20029;-63
2022/12/26 07:02:12;;;;;;;9.05;2.85;;;16.20;70.30;;;;;;10319049;28;20025;-64
2022/12/26 07:07:13;;;;;;;6.72;2.53;;;16.20;70.80;;;;;;10319399;28;20026;-67
2022/12/26 07:12:13;;;;;;;5.95;2.72;;;16.20;71.40;;;;;;10318240;28;20078;-68
2022/12/26 07:17:14;;;;;;;16.02;3.90;;;16.20;71.20;;;;;;10322676;28;20030;-63
2022/12/26 07:22:15;;;;;;;9.85;2.65;;;16.20;71.30;;;;;;10339663;28;20029;-63
2022/12/26 07:27:15;;;;;;;13.90;3.05;;;16.10;71.50;;;;;;10350010;28;20068;-57
2022/12/26 07:32:16;;;;;;;5.47;2.60;;;16.10;71.70;;;;;;10367675;28;20377;-62
2022/12/26 07:37:17;;;;;;;12.52;3.85;;;16.00;71.60;;;;;;10367191;28;20485;-62
2022/12/26 07:42:19;;;;;;;6.15;2.33;;;16.00;71.70;;;;;;10358171;28;20049;-59
2022/12/26 07:47:20;;;;;;;8.43;3.58;;;16.00;71.30;;;;;;10345321;28;20041;-60
2022/12/26 07:52:21;;;;;;;9.55;3.03;;;16.10;71.20;;;;;;10367027;28;20028;-61
2022/12/26 07:57:22;;;;;;;10.77;3.45;;;16.10;71.50;;;;;;10358548;28;20029;-61
2022/12/26 08:02:23;;;;;;;5.90;3.22;;;16.10;72.70;;;;;;10337426;28;20546;-60
2022/12/26 08:07:23;;;;;;;7.88;3.10;;;16.10;76.50;;;;;;10349622;28;20061;-57
2022/12/26 08:12:25;;;;;;;5.43;3.13;;;16.20;76.00;;;;;;10310814;28;20038;-56
2022/12/26 08:17:26;;;;;;;8.20;3.17;;;16.30;74.90;;;;;;10325346;28;20046;-56
2022/12/26 08:22:27;;;;;;;6.30;2.90;;;16.40;72.90;;;;;;10338891;28;20485;-56
2022/12/26 08:27:27;;;;;;;6.32;3.30;;;16.40;72.60;;;;;;10363930;28;20176;-57
2022/12/26 08:32:28;;;;;;;4.47;2.78;;;16.40;71.20;;;;;;10362241;28;20157;-56
2022/12/26 08:37:29;;;;;;;3.72;2.40;;;16.50;70.80;;;;;;10345156;28;20482;-56
2022/12/26 08:42:29;;;;;;;8.20;2.67;;;16.50;70.80;;;;;;10360463;28;20298;-61
2022/12/26 08:47:30;;;;;;;9.82;2.42;;;16.50;71.10;;;;;;10355101;28;20057;-56
2022/12/26 08:52:31;;;;;;;7.20;3.28;;;16.50;71.20;;;;;;10354960;28;20489;-57
2022/12/26 08:57:31;;;;;;;6.53;3.00;;;16.50;72.50;;;;;;10340829;28;20025;-57
2022/12/26 09:02:32;;;;;;;5.85;2.45;;;16.50;73.30;;;;;;10348381;28;20101;-58
2022/12/26 09:07:33;;;;;;;5.68;3.05;;;16.60;74.10;;;;;;10328215;28;20030;-58
2022/12/26 09:12:33;;;;;;;8.38;3.10;;;16.80;73.90;;;;;;10364987;28;20116;-56
2022/12/26 09:17:34;;;;;;;8.20;3.13;;;16.80;73.00;;;;;;10364142;28;20685;-59
2022/12/26 09:22:49;;;;;;;7.28;2.72;;;16.80;72.90;;;;;;10360047;28;20054;-58
2022/12/26 09:27:52;;;;;;;7.75;2.13;;;16.80;73.10;;;;;;10321486;28;20031;-60
2022/12/26 09:32:53;;;;;;;14.98;2.92;;;16.80;72.50;;;;;;10330713;28;20030;-60
2022/12/26 09:37:54;;;;;;;7.03;2.25;;;16.70;73.50;;;;;;10341664;28;20105;-59
2022/12/26 09:43:14;;;;;;;10.95;3.22;;;16.50;73.70;;;;;;10353039;28;20065;-56
2022/12/26 09:48:35;;;;;;;7.18;2.67;;;16.50;73.50;;;;;;10349813;28;20033;-58
2022/12/26 09:53:42;;;;;;;7.28;3.13;;;16.40;73.90;;;;;;10358227;28;20019;-58
2022/12/26 09:58:55;;;;;;;6.30;2.42;;;16.30;73.50;;;;;;10321963;28;20021;-54
2022/12/26 10:03:58;;;;;;;13.15;2.83;;;16.20;73.60;;;;;;10330108;28;20528;-58
2022/12/26 10:09:27;;;;;;;8.60;2.08;;;16.10;73.80;;;;;;10338270;28;20448;-58
2022/12/26 10:14:55;;;;;;;9.30;2.35;;;16.20;76.00;;;;;;10348668;28;20069;-61
2022/12/26 10:20:38;;;;;;;5.55;2.50;;;16.30;75.70;;;;;;10337899;28;20032;-60
2022/12/26 10:25:52;;;;;;;19.35;3.75;;;16.60;74.50;;;;;;10351001;28;20011;-59
2022/12/26 10:30:56;;;;;;;9.20;2.47;;;16.50;74.10;;;;;;10363109;28;20058;-60
2022/12/26 10:35:58;;;;;;;8.60;3.00;;;16.70;75.50;;;;;;10363752;28;20025;-59
2022/12/26 10:41:09;;;;;;;14.50;3.05;;;16.60;74.10;;;;;;10353403;28;20390;-60
2022/12/26 10:46:16;;;;;;;6.22;2.55;;;16.80;73.90;;;;;;10334096;28;20393;-60
2022/12/26 10:51:17;;;;;;;9.65;2.60;;;17.40;73.10;;;;;;10360882;28;20046;-64
2022/12/26 10:56:19;;;;;;;6.90;2.90;;;17.70;71.90;;;;;;10370440;28;20021;-63
2022/12/26 11:01:29;;;;;;;9.63;2.35;;;17.50;73.70;;;;;;10370655;28;20109;-60
2022/12/26 11:06:51;;;;;;;6.78;2.47;;;17.40;73.60;;;;;;10361504;28;20029;-60
2022/12/26 11:11:53;;;;;;;8.10;2.03;;;17.30;74.10;;;;;;10357871;28;20034;-61
2022/12/26 11:16:58;;;;;;;16.27;2.85;;;17.30;74.30;;;;;;10335227;28;20022;-64
2022/12/26 11:22:27;;;;;;;14.77;2.50;;;17.20;74.20;;;;;;10357480;28;20029;-59
2022/12/26 11:27:28;;;;;;;16.27;2.25;;;17.20;74.40;;;;;;10371957;28;20080;-63
2022/12/26 11:32:29;;;;;;;14.25;2.42;;;17.20;73.60;;;;;;10328814;28;20113;-61
2022/12/26 11:38:33;;;;;;;17.13;2.45;;;17.20;73.60;;;;;;10335365;28;20037;-58
2022/12/26 11:43:35;;;;;;;10.75;2.25;;;17.20;73.60;;;;;;10320667;28;20045;-60
2022/12/26 11:48:37;;;;;;;16.55;3.47;;;16.90;73.40;;;;;;10282507;28;20669;-61
2022/12/26 11:53:37;;;;;;;9.02;1.77;;;16.80;74.00;;;;;;10317326;28;20030;-61
2022/12/26 11:58:38;;;;;;;5.32;1.88;;;16.70;74.00;;;;;;10322905;28;20048;-61
2022/12/26 12:03:48;;;;;;;7.25;2.08;;;16.70;74.30;;;;;;10304520;28;20042;-63
2022/12/26 12:09:20;;;;;;;11.25;2.60;;;16.60;74.10;;;;;;10290760;28;20562;-62
2022/12/26 12:14:30;;;;;;;6.80;2.10;;;16.70;74.00;;;;;;10335311;28;20073;-64
2022/12/26 12:20:25;;;;;;;13.25;2.83;;;16.60;73.90;;;;;;10338631;28;20040;-64
2022/12/26 12:26:00;;;;;;;9.70;1.58;;;16.60;73.70;;;;;;10361833;28;20061;-62
2022/12/26 12:31:13;;;;;;;6.43;1.30;;;16.80;74.30;;;;;;10368731;28;20026;-62
2022/12/26 12:36:48;;;;;;;4.40;1.83;;;16.90;73.90;;;;;;10364533;28;20056;-66
2022/12/26 12:42:09;;;;;;;5.82;1.40;;;16.90;74.00;;;;;;10290605;28;20033;-68
2022/12/26 12:47:52;;;;;;;5.28;2.05;;;16.90;74.00;;;;;;10361010;28;20037;-61
2022/12/26 12:53:17;;;;;;;7.07;1.60;;;16.90;74.00;;;;;;10347276;28;20026;-63
2022/12/26 12:58:53;;;;;;;10.00;1.85;;;16.90;74.20;;;;;;10352514;28;20109;-60
2022/12/26 13:04:39;;;;;;;4.50;1.10;;;16.90;74.30;;;;;;10350660;28;20021;-64
2022/12/26 13:09:48;;;;;;;18.27;3.42;;;16.80;74.40;;;;;;10356605;28;20049;-62
2022/12/26 13:15:28;;;;;;;14.40;2.38;;;16.50;75.50;;;;;;10343779;28;20030;-61
2022/12/26 13:20:41;;;;;;;11.88;1.73;;;16.40;76.00;;;;;;10343673;28;20025;-60
2022/12/26 13:25:49;;;;;;;14.43;2.00;;;16.50;75.40;;;;;;10328520;28;20126;-61
2022/12/26 13:30:54;;;;;;;6.85;2.00;;;16.50;74.20;;;;;;10321522;28;20030;-61
2022/12/26 13:36:04;;;;;;;9.82;1.83;;;16.30;74.50;;;;;;10355412;28;20029;-61
2022/12/26 13:46:39;;;;;;;5.50;1.42;;;16.20;74.20;;;;;;10363942;28;20030;-61
2022/12/26 13:51:45;;;;;;;5.68;1.65;;;16.10;74.50;;;;;;10334158;28;20019;-61
2022/12/26 13:57:35;;;;;;;7.60;1.67;;;16.10;73.90;;;;;;10334531;28;20485;-62
2022/12/26 14:02:55;;;;;;;7.65;1.95;;;16.10;73.80;;;;;;10324042;28;20561;-62
2022/12/26 14:08:28;;;;;;;10.13;2.55;;;16.10;73.60;;;;;;10338256;28;20026;-61
2022/12/26 14:14:11;;;;;;;8.13;2.00;;;16.10;72.90;;;;;;10320295;28;20136;-61
2022/12/26 14:19:30;;;;;;;10.52;2.33;;;16.10;73.10;;;;;;10362038;28;20383;-61
2022/12/26 14:24:59;;;;;;;12.95;2.53;;;16.20;72.50;;;;;;10362932;28;20026;-61
2022/12/26 14:30:12;;;;;;;11.18;1.98;;;16.30;72.40;;;;;;10345023;28;20061;-60
2022/12/26 14:36:12;;;;;;;8.98;1.75;;;16.20;72.30;;;;;;10359798;28;20022;-61
2022/12/26 14:46:39;;;;;;;13.57;2.50;;;16.30;71.80;;;;;;10339228;28;20034;-61
2022/12/26 14:51:40;;;;;;;15.30;3.33;;;16.30;71.00;;;;;;10352414;28;20113;-62
2022/12/26 14:56:41;;;;;;;20.80;3.72;;;16.50;71.20;;;;;;10339395;28;20022;-63
2022/12/26 15:01:47;;;;;;;24.88;3.45;;;16.70;70.90;;;;;;10353957;28;20034;-60
2022/12/26 15:07:13;;;;;;;19.33;3.40;;;16.70;72.70;;;;;;10338092;28;20034;-59
2022/12/26 15:13:03;;;;;;;15.60;2.17;;;16.60;73.90;;;;;;10342315;28;20125;-61
2022/12/26 15:18:41;;;;;;;11.57;2.72;;;16.90;75.70;;;;;;10346016;28;20371;-61
2022/12/26 15:24:18;;;;;;;12.10;2.40;;;16.90;75.40;;;;;;10373203;28;20068;-61
2022/12/26 15:29:39;;;;;;;11.75;2.47;;;16.90;75.60;;;;;;10362160;28;20030;-61
2022/12/26 15:35:06;;;;;;;11.63;2.72;;;16.80;75.30;;;;;;10363514;28;20430;-61
2022/12/26 15:40:34;;;;;;;14.70;3.35;;;17.00;75.30;;;;;;10362479;28;20026;-62
2022/12/26 15:46:05;;;;;;;12.48;2.08;;;16.90;74.80;;;;;;10352426;28;20096;-61
2022/12/26 15:51:13;;;;;;;16.10;2.63;;;16.70;75.70;;;;;;10363938;28;21362;-62
2022/12/26 15:56:43;;;;;;;6.72;2.08;;;16.60;76.10;;;;;;10356526;28;20117;-61
2022/12/26 16:01:47;;;;;;;12.97;2.50;;;16.70;75.80;;;;;;10359777;28;20022;-62
2022/12/26 16:06:56;;;;;;;11.68;2.42;;;16.90;74.30;;;;;;10367489;28;20084;-62
2022/12/26 16:12:00;;;;;;;11.35;2.33;;;17.00;74.10;;;;;;10355551;28;20044;-62
2022/12/26 16:17:12;;;;;;;18.55;3.75;;;17.10;75.00;;;;;;10357045;28;20117;-61
2022/12/26 16:22:45;;;;;;;8.52;3.03;;;17.30;75.70;;;;;;10350058;28;20018;-62
2022/12/26 16:27:49;;;;;;;14.73;3.05;;;17.40;74.40;;;;;;10323229;28;20046;-61
2022/12/26 16:32:51;;;;;;;12.10;2.78;;;17.40;73.70;;;;;;10345709;28;20029;-60
2022/12/26 16:37:55;;;;;;;8.75;2.45;;;17.60;74.50;;;;;;10350605;28;20033;-59
2022/12/26 16:43:17;;;;;;;15.20;2.92;;;17.80;75.20;;;;;;10321403;28;20463;-58
2022/12/26 16:48:24;;;;;;;12.50;2.85;;;17.80;74.90;;;;;;10336364;28;20066;-58
2022/12/26 16:53:43;;;;;;;12.55;2.63;;;17.80;75.00;;;;;;10345854;28;20466;-59
2022/12/26 16:58:44;;;;;;;14.18;2.13;;;17.80;75.10;;;;;;10347860;28;20058;-59
2022/12/26 17:04:14;;;;;;;8.27;2.53;;;17.80;75.20;;;;;;10361644;28;20100;-60
2022/12/26 17:09:16;;;;;;;10.48;2.60;;;17.90;75.40;;;;;;10354720;28;20045;-59
2022/12/26 17:14:37;;;;;;;14.35;2.50;;;18.10;75.70;;;;;;10366891;28;20105;-60
2022/12/26 17:19:38;;;;;;;10.40;2.58;;;17.90;76.20;;;;;;10365856;28;20550;-58
2022/12/26 17:24:49;;;;;;;11.05;2.63;;;17.80;77.10;;;;;;10365123;28;20036;-61
2022/12/26 17:29:53;;;;;;;13.85;2.67;;;17.60;76.20;;;;;;10356606;28;20038;-61
2022/12/26 17:34:54;;;;;;;27.02;3.58;;;17.60;76.20;;;;;;10361033;28;20026;-56
2022/12/26 17:40:04;;;;;;;15.15;3.10;;;17.40;76.50;;;;;;10365624;28;20540;-59
2022/12/26 17:45:05;;;;;;;;;;;17.40;76.90;;;;;;10353058;28;20392;-58
2022/12/26 17:50:05;;;;;;;23.35;5.43;;;17.40;75.90;;;;;;10365370;28;19921;-60
2022/12/26 17:55:24;;;;;;;39.08;20.88;;;17.50;75.30;;;;;;10353811;28;20436;-60
2022/12/26 18:00:27;;;;;;;41.70;20.02;;;17.30;74.60;;;;;;10344791;28;20109;-61
2022/12/26 18:05:28;;;;;;;35.88;18.42;;;17.20;75.70;;;;;;10352571;28;20567;-61
2022/12/26 18:10:35;;;;;;;41.88;18.08;;;17.20;76.00;;;;;;10378510;28;20042;-60
2022/12/26 18:15:35;;;;;;;46.03;19.00;;;17.30;76.50;;;;;;10351829;28;20037;-59
2022/12/26 18:20:36;;;;;;;30.77;16.67;;;17.20;75.40;;;;;;10363979;28;20398;-59
2022/12/26 18:25:37;;;;;;;31.45;16.55;;;17.00;75.50;;;;;;10350922;28;20503;-57
2022/12/26 18:30:38;;;;;;;30.90;15.98;;;16.90;76.00;;;;;;10326062;28;20041;-59
2022/12/26 18:35:40;;;;;;;34.50;14.27;;;16.80;76.40;;;;;;10350981;28;20018;-59
2022/12/26 18:40:45;;;;;;;33.78;15.70;;;16.80;78.00;;;;;;10328890;28;20026;-60
2022/12/26 18:45:46;;;;;;;26.35;13.88;;;16.60;77.90;;;;;;10350383;28;20037;-58
2022/12/26 18:50:47;;;;;;;30.90;13.52;;;16.60;78.00;;;;;;10364933;28;20477;-56
2022/12/26 18:55:48;;;;;;;26.80;12.48;;;16.60;77.90;;;;;;10363336;28;20061;-61
2022/12/26 19:00:48;;;;;;;31.02;14.55;;;16.60;77.80;;;;;;10361045;28;20406;-58
2022/12/26 19:05:49;;;;;;;28.00;12.90;;;16.60;77.80;;;;;;10358533;28;20101;-58
2022/12/26 19:10:49;;;;;;;25.65;10.05;;;16.70;76.90;;;;;;10358019;28;20121;-57
2022/12/26 19:15:50;;;;;;;23.40;10.20;;;16.70;76.90;;;;;;10366958;28;20470;-59
2022/12/26 19:20:51;;;;;;;19.25;11.63;;;16.70;76.90;;;;;;10363534;28;20056;-58
2022/12/26 19:25:52;;;;;;;20.30;10.80;;;16.70;76.90;;;;;;10330673;28;20032;-59
2022/12/26 19:30:53;;;;;;;21.55;11.65;;;16.80;77.00;;;;;;10366834;28;20069;-58
2022/12/26 19:35:54;;;;;;;20.15;9.35;;;16.80;77.00;;;;;;10364802;28;20101;-58
2022/12/26 19:41:07;;;;;;;20.52;9.30;;;16.80;76.90;;;;;;10356858;28;20056;-57
2022/12/26 19:46:14;;;;;;;22.10;8.52;;;16.80;77.00;;;;;;10361031;28;20034;-57
2022/12/26 19:51:16;;;;;;;20.33;8.85;;;16.80;77.00;;;;;;10366017;28;20385;-59
2022/12/26 19:56:26;;;;;;;21.92;10.05;;;16.80;76.90;;;;;;10364754;28;20041;-59
2022/12/26 20:01:30;;;;;;;20.23;8.70;;;16.80;77.00;;;;;;10364435;28;20147;-58
2022/12/26 20:06:34;;;;;;;13.48;7.75;;;16.80;77.10;;;;;;10364321;28;20508;-57
2022/12/26 20:11:38;;;;;;;14.57;8.18;;;16.80;77.20;;;;;;10364924;28;20045;-59
2022/12/26 20:16:40;;;;;;;15.52;7.47;;;16.70;77.20;;;;;;10366387;28;20400;-55
2022/12/26 20:21:40;;;;;;;23.08;8.75;;;16.80;77.20;;;;;;10363181;28;20115;-57
2022/12/26 20:26:41;;;;;;;17.38;8.52;;;16.80;77.20;;;;;;10364830;28;20161;-57
2022/12/26 20:31:42;;;;;;;14.60;7.68;;;16.70;77.10;;;;;;10310945;28;20305;-59
2022/12/26 20:36:43;;;;;;;11.93;7.60;;;16.70;77.30;;;;;;10362449;28;20037;-56
2022/12/26 20:41:44;;;;;;;15.63;7.13;;;16.80;77.30;;;;;;10357195;28;20076;-59
2022/12/26 20:46:45;;;;;;;15.93;6.45;;;16.70;76.70;;;;;;10355462;28;20037;-59
2022/12/26 20:51:46;;;;;;;17.27;7.35;;;16.60;76.30;;;;;;10366852;28;20104;-60
2022/12/26 20:56:47;;;;;;;16.13;5.55;;;16.40;76.40;;;;;;10324434;28;20080;-60
2022/12/26 21:01:47;;;;;;;13.63;6.55;;;16.30;75.50;;;;;;10319586;28;20097;-59
2022/12/26 21:06:49;;;;;;;13.98;5.50;;;16.20;75.70;;;;;;10326268;28;20021;-60
2022/12/26 21:11:49;;;;;;;10.48;5.65;;;16.10;76.00;;;;;;10332590;28;20049;-61
2022/12/26 21:16:57;;;;;;;12.82;5.60;;;16.10;76.00;;;;;;10367548;28;20112;-59
2022/12/26 21:21:58;;;;;;;12.05;5.47;;;16.00;75.90;;;;;;10349700;28;20021;-60
2022/12/26 21:26:59;;;;;;;10.82;5.55;;;16.00;75.90;;;;;;10365963;28;20034;-60
2022/12/26 21:32:03;;;;;;;9.80;6.10;;;16.00;75.80;;;;;;10353653;28;20066;-59
2022/12/26 21:42:22;;;;;;;8.60;4.57;;;15.90;75.50;;;;;;10336763;28;20113;-59
2022/12/26 21:47:23;;;;;;;11.27;5.55;;;15.90;75.50;;;;;;10359336;28;20502;-60
2022/12/26 21:52:24;;;;;;;9.88;4.72;;;15.80;75.40;;;;;;10324439;28;20054;-58
2022/12/26 21:57:24;;;;;;;8.10;4.35;;;15.80;75.30;;;;;;10330842;28;20086;-60
2022/12/26 22:07:55;;;;;;;9.82;4.90;;;15.70;75.20;;;;;;10324649;28;20043;-59
2022/12/26 22:12:56;;;;;;;10.32;4.50;;;15.70;75.10;;;;;;10323515;28;20045;-59
2022/12/26 22:17:57;;;;;;;5.93;3.95;;;15.70;74.90;;;;;;10307557;28;20014;-56
2022/12/26 22:22:57;;;;;;;13.00;4.53;;;15.70;74.90;;;;;;10355479;28;20026;-62
2022/12/26 22:27:59;;;;;;;8.85;4.07;;;15.70;74.70;;;;;;10343326;28;20054;-60
2022/12/26 22:33:00;;;;;;;7.88;4.15;;;15.70;74.70;;;;;;10344685;28;20069;-60
2022/12/26 22:38:00;;;;;;;8.93;4.20;;;15.60;74.60;;;;;;10354771;28;20249;-60
2022/12/26 22:43:01;;;;;;;11.63;4.60;;;15.60;74.40;;;;;;10361212;28;20121;-60
2022/12/26 22:48:03;;;;;;;7.53;4.22;;;15.60;74.40;;;;;;10362360;28;20034;-58
2022/12/26 22:53:03;;;;;;;7.25;3.70;;;15.60;74.30;;;;;;10336769;28;20527;-60
2022/12/26 22:58:04;;;;;;;7.28;3.20;;;15.60;74.20;;;;;;10323670;28;20022;-60
2022/12/26 23:03:04;;;;;;;8.55;3.63;;;15.60;74.10;;;;;;10323830;28;20422;-59
2022/12/26 23:08:06;;;;;;;6.90;4.20;;;15.60;73.80;;;;;;10323547;28;20074;-60
2022/12/26 23:13:14;;;;;;;7.18;3.80;;;15.70;73.60;;;;;;10322733;28;20592;-59
2022/12/26 23:23:55;;;;;;;6.38;3.53;;;15.80;73.10;;;;;;10349458;28;20420;-60
2022/12/26 23:34:15;;;;;;;6.03;3.53;;;15.80;73.00;;;;;;10363663;28;20050;-60
2022/12/26 23:39:16;;;;;;;5.15;2.97;;;15.80;72.80;;;;;;10350821;28;20123;-60
2022/12/26 23:44:17;;;;;;;6.00;3.53;;;15.90;72.60;;;;;;10357624;28;20026;-58
2022/12/26 23:49:18;;;;;;;7.15;2.95;;;15.90;72.40;;;;;;10362179;28;20096;-57
2022/12/26 23:54:19;;;;;;;5.43;2.75;;;15.90;72.30;;;;;;10352533;28;20125;-61
2022/12/26 23:59:19;;;;;;;5.60;2.70;;;15.90;72.00;;;;;;10362243;28;20105;-60
